createdAt,value
2023-04-18T00:00:20.577Z,1005.44
2023-04-18T00:01:20.225Z,1005.44
2023-04-18T00:02:20.391Z,1005.45
2023-04-18T00:03:20.374Z,1005.46
2023-04-18T00:04:20.680Z,1005.46
2023-04-18T00:05:20.444Z,1005.45
2023-04-18T00:06:20.169Z,1005.46
2023-04-18T00:07:20.159Z,1005.45
2023-04-18T00:08:20.146Z,1005.44
2023-04-18T00:09:20.178Z,1005.46
2023-04-18T00:10:20.491Z,1005.47
2023-04-18T00:11:20.114Z,1005.46
2023-04-18T00:12:20.097Z,1005.46
2023-04-18T00:13:20.092Z,1005.46
2023-04-18T00:14:20.081Z,1005.45
2023-04-18T00:15:20.378Z,1005.45
2023-04-18T00:16:20.082Z,1005.45
2023-04-18T00:17:20.050Z,1005.45
2023-04-18T00:18:20.050Z,1005.44
2023-04-18T00:19:20.049Z,1005.45
2023-04-18T00:20:20.336Z,1005.44
2023-04-18T00:21:20.011Z,1005.43
2023-04-18T00:22:20.005Z,1005.44
2023-04-18T00:23:19.991Z,1005.43
2023-04-18T00:24:19.982Z,1005.41
2023-04-18T00:25:20.324Z,1005.42
2023-04-18T00:26:19.953Z,1005.43
2023-04-18T00:27:19.949Z,1005.43
2023-04-18T00:28:19.958Z,1005.43
2023-04-18T00:29:19.986Z,1005.43
2023-04-18T00:30:20.427Z,1005.42
2023-04-18T00:31:20.010Z,1005.41
2023-04-18T00:32:20.011Z,1005.39
2023-04-18T00:33:19.898Z,1005.39
2023-04-18T00:34:19.892Z,1005.40
2023-04-18T00:35:20.191Z,1005.41
2023-04-18T00:36:19.861Z,1005.40
2023-04-18T00:37:19.850Z,1005.40
2023-04-18T00:38:19.835Z,1005.42
2023-04-18T00:39:19.833Z,1005.42
2023-04-18T00:40:20.155Z,1005.43
2023-04-18T00:41:19.805Z,1005.43
2023-04-18T00:42:19.783Z,1005.43
2023-04-18T00:43:19.783Z,1005.42
2023-04-18T00:44:19.774Z,1005.44
2023-04-18T00:45:20.029Z,1005.43
2023-04-18T00:46:19.836Z,1005.43
2023-04-18T00:47:19.743Z,1005.44
2023-04-18T00:48:19.738Z,1005.44
2023-04-18T00:49:19.729Z,1005.44
2023-04-18T00:50:20.156Z,1005.44
2023-04-18T00:51:19.706Z,1005.41
2023-04-18T00:52:19.701Z,1005.42
2023-04-18T00:53:19.683Z,1005.41
2023-04-18T00:54:19.673Z,1005.41
2023-04-18T00:55:20.040Z,1005.40
2023-04-18T00:56:19.647Z,1005.39
2023-04-18T00:57:19.644Z,1005.38
2023-04-18T00:58:19.630Z,1005.37
2023-04-18T00:59:19.622Z,1005.35
2023-04-18T01:00:20.047Z,1005.34
2023-04-18T01:01:19.638Z,1005.33
2023-04-18T01:02:19.676Z,1005.32
2023-04-18T01:03:19.638Z,1005.32
2023-04-18T01:04:19.790Z,1005.31
2023-04-18T01:05:19.578Z,1005.33
2023-04-18T01:06:19.546Z,1005.34
2023-04-18T01:07:19.546Z,1005.32
2023-04-18T01:08:19.518Z,1005.33
2023-04-18T01:09:19.517Z,1005.33
2023-04-18T01:10:19.919Z,1005.32
2023-04-18T01:11:19.494Z,1005.32
2023-04-18T01:12:19.495Z,1005.31
2023-04-18T01:13:19.488Z,1005.31
2023-04-18T01:14:19.462Z,1005.30
2023-04-18T01:15:19.774Z,1005.29
2023-04-18T01:16:20.335Z,1005.30
2023-04-18T01:17:19.472Z,1005.29
2023-04-18T01:18:19.416Z,1005.29
2023-04-18T01:19:19.415Z,1005.28
2023-04-18T01:20:19.687Z,1005.28
2023-04-18T01:21:19.391Z,1005.28
2023-04-18T01:22:19.390Z,1005.27
2023-04-18T01:23:19.371Z,1005.26
2023-04-18T01:24:19.358Z,1005.25
2023-04-18T01:25:19.886Z,1005.25
2023-04-18T01:26:19.337Z,1005.25
2023-04-18T01:27:19.333Z,1005.23
2023-04-18T01:28:19.321Z,1005.23
2023-04-18T01:29:19.312Z,1005.23
2023-04-18T01:30:19.575Z,1005.23
2023-04-18T01:31:19.304Z,1005.23
2023-04-18T01:32:19.275Z,1005.22
2023-04-18T01:33:19.276Z,1005.23
2023-04-18T01:34:19.253Z,1005.22
2023-04-18T01:35:20.123Z,1005.22
2023-04-18T01:36:19.235Z,1005.22
2023-04-18T01:37:19.237Z,1005.23
2023-04-18T01:38:19.212Z,1005.22
2023-04-18T01:39:19.220Z,1005.20
2023-04-18T01:40:19.527Z,1005.21
2023-04-18T01:41:19.190Z,1005.21
2023-04-18T01:42:19.169Z,1005.21
2023-04-18T01:43:19.171Z,1005.19
2023-04-18T01:44:19.152Z,1005.22
2023-04-18T01:45:19.328Z,1005.20
2023-04-18T01:46:19.200Z,1005.18
2023-04-18T01:47:19.174Z,1005.20
2023-04-18T01:48:19.111Z,1005.17
2023-04-18T01:49:19.111Z,1005.17
2023-04-18T01:50:19.403Z,1005.16
2023-04-18T01:51:19.090Z,1005.17
2023-04-18T01:52:19.071Z,1005.17
2023-04-18T01:53:19.058Z,1005.15
2023-04-18T01:54:19.059Z,1005.16
2023-04-18T01:55:19.063Z,1005.16
2023-04-18T01:56:19.035Z,1005.14
2023-04-18T01:57:19.022Z,1005.13
2023-04-18T01:58:19.011Z,1005.11
2023-04-18T01:59:19.002Z,1005.10
2023-04-18T02:00:19.359Z,1005.09
2023-04-18T02:01:19.007Z,1005.11
2023-04-18T02:02:19.090Z,1005.10
2023-04-18T02:03:19.051Z,1005.10
2023-04-18T02:04:19.018Z,1005.07
2023-04-18T02:05:19.265Z,1005.06
2023-04-18T02:06:18.930Z,1005.04
2023-04-18T02:07:18.917Z,1005.06
2023-04-18T02:08:18.900Z,1005.08
2023-04-18T02:09:18.898Z,1005.07
2023-04-18T02:10:19.247Z,1005.07
2023-04-18T02:11:18.880Z,1005.07
2023-04-18T02:12:18.863Z,1005.07
2023-04-18T02:13:18.865Z,1005.08
2023-04-18T02:14:18.855Z,1005.10
2023-04-18T02:15:19.300Z,1005.11
2023-04-18T02:16:18.863Z,1005.14
2023-04-18T02:17:18.818Z,1005.14
2023-04-18T02:18:18.808Z,1005.15
2023-04-18T02:19:18.798Z,1005.17
2023-04-18T02:20:19.187Z,1005.17
2023-04-18T02:21:18.794Z,1005.17
2023-04-18T02:22:18.766Z,1005.16
2023-04-18T02:23:18.754Z,1005.16
2023-04-18T02:24:18.739Z,1005.17
2023-04-18T02:25:19.065Z,1005.18
2023-04-18T02:26:18.726Z,1005.18
2023-04-18T02:27:18.735Z,1005.20
2023-04-18T02:28:18.706Z,1005.20
2023-04-18T02:29:18.699Z,1005.20
2023-04-18T02:30:19.089Z,1005.21
2023-04-18T02:31:18.695Z,1005.19
2023-04-18T02:32:18.676Z,1005.20
2023-04-18T02:33:18.659Z,1005.19
2023-04-18T02:34:18.646Z,1005.20
2023-04-18T02:35:18.982Z,1005.18
2023-04-18T02:36:18.800Z,1005.20
2023-04-18T02:37:18.623Z,1005.20
2023-04-18T02:38:18.593Z,1005.15
2023-04-18T02:39:18.600Z,1005.15
2023-04-18T02:40:18.956Z,1005.15
2023-04-18T02:41:18.585Z,1005.15
2023-04-18T02:42:18.559Z,1005.16
2023-04-18T02:43:18.551Z,1005.15
2023-04-18T02:44:18.538Z,1005.15
2023-04-18T02:45:18.741Z,1005.15
2023-04-18T02:46:18.568Z,1005.14
2023-04-18T02:47:18.512Z,1005.15
2023-04-18T02:48:18.562Z,1005.16
2023-04-18T02:49:18.518Z,1005.17
2023-04-18T02:50:18.484Z,1005.18
2023-04-18T02:51:19.023Z,1005.19
2023-04-18T02:52:18.462Z,1005.20
2023-04-18T02:53:18.452Z,1005.19
2023-04-18T02:54:18.453Z,1005.18
2023-04-18T02:55:18.471Z,1005.19
2023-04-18T02:56:18.882Z,1005.20
2023-04-18T02:57:18.418Z,1005.20
2023-04-18T02:58:18.428Z,1005.17
2023-04-18T02:59:18.392Z,1005.18
2023-04-18T03:00:18.395Z,1005.17
2023-04-18T03:01:18.835Z,1005.16
2023-04-18T03:02:18.391Z,1005.18
2023-04-18T03:03:18.377Z,1005.18
2023-04-18T03:04:18.394Z,1005.17
2023-04-18T03:05:18.326Z,1005.18
2023-04-18T03:06:18.706Z,1005.19
2023-04-18T03:07:18.304Z,1005.19
2023-04-18T03:08:18.293Z,1005.21
2023-04-18T03:09:18.288Z,1005.23
2023-04-18T03:10:18.281Z,1005.24
2023-04-18T03:11:18.641Z,1005.23
2023-04-18T03:12:18.251Z,1005.22
2023-04-18T03:13:18.246Z,1005.23
2023-04-18T03:14:18.232Z,1005.22
2023-04-18T03:15:18.507Z,1005.23
2023-04-18T03:16:18.289Z,1005.22
2023-04-18T03:17:18.210Z,1005.22
2023-04-18T03:18:18.188Z,1005.22
2023-04-18T03:19:18.192Z,1005.23
2023-04-18T03:20:18.489Z,1005.21
2023-04-18T03:21:18.162Z,1005.21
2023-04-18T03:22:18.157Z,1005.22
2023-04-18T03:23:18.139Z,1005.24
2023-04-18T03:24:18.126Z,1005.26
2023-04-18T03:25:18.411Z,1005.24
2023-04-18T03:26:18.114Z,1005.24
2023-04-18T03:27:18.102Z,1005.23
2023-04-18T03:28:18.098Z,1005.25
2023-04-18T03:29:18.096Z,1005.26
2023-04-18T03:30:18.384Z,1005.25
2023-04-18T03:31:18.154Z,1005.26
2023-04-18T03:32:18.075Z,1005.27
2023-04-18T03:33:18.048Z,1005.26
2023-04-18T03:34:18.020Z,1005.24
2023-04-18T03:35:18.328Z,1005.25
2023-04-18T03:36:18.014Z,1005.26
2023-04-18T03:37:17.999Z,1005.28
2023-04-18T03:38:17.986Z,1005.30
2023-04-18T03:39:17.975Z,1005.28
2023-04-18T03:40:17.961Z,1005.29
2023-04-18T03:41:18.317Z,1005.31
2023-04-18T03:42:18.067Z,1005.32
2023-04-18T03:43:17.942Z,1005.32
2023-04-18T03:44:17.924Z,1005.33
2023-04-18T03:45:17.918Z,1005.32
2023-04-18T03:46:17.982Z,1005.36
2023-04-18T03:47:17.898Z,1005.31
2023-04-18T03:48:17.886Z,1005.32
2023-04-18T03:49:17.822Z,1005.30
2023-04-18T03:50:17.864Z,1005.31
2023-04-18T03:51:17.898Z,1005.33
2023-04-18T03:52:17.799Z,1005.34
2023-04-18T03:53:17.780Z,1005.33
2023-04-18T03:54:17.765Z,1005.32
2023-04-18T03:55:17.834Z,1005.33
2023-04-18T03:56:18.118Z,1005.36
2023-04-18T03:57:17.761Z,1005.35
2023-04-18T03:58:17.729Z,1005.35
2023-04-18T03:59:17.733Z,1005.36
2023-04-18T04:00:17.770Z,1005.35
2023-04-18T04:01:18.060Z,1005.34
2023-04-18T04:02:17.912Z,1005.35
2023-04-18T04:03:17.770Z,1005.35
2023-04-18T04:04:18.038Z,1005.35
2023-04-18T04:05:17.671Z,1005.35
2023-04-18T04:06:17.961Z,1005.35
2023-04-18T04:07:17.643Z,1005.35
2023-04-18T04:08:17.651Z,1005.32
2023-04-18T04:09:17.619Z,1005.32
2023-04-18T04:10:17.613Z,1005.34
2023-04-18T04:11:17.931Z,1005.34
2023-04-18T04:12:17.594Z,1005.37
2023-04-18T04:13:17.575Z,1005.37
2023-04-18T04:14:17.581Z,1005.40
2023-04-18T04:15:17.566Z,1005.39
2023-04-18T04:16:18.465Z,1005.39
2023-04-18T04:17:17.551Z,1005.40
2023-04-18T04:18:17.537Z,1005.40
2023-04-18T04:19:17.510Z,1005.40
2023-04-18T04:20:17.511Z,1005.42
2023-04-18T04:21:20.037Z,1005.40
2023-04-18T04:22:17.490Z,1005.43
2023-04-18T04:23:17.482Z,1005.44
2023-04-18T04:24:17.469Z,1005.45
2023-04-18T04:25:17.457Z,1005.47
2023-04-18T04:26:17.997Z,1005.48
2023-04-18T04:27:17.443Z,1005.49
2023-04-18T04:28:17.435Z,1005.51
2023-04-18T04:29:17.414Z,1005.52
2023-04-18T04:30:17.402Z,1005.55
2023-04-18T04:31:17.752Z,1005.55
2023-04-18T04:32:17.387Z,1005.57
2023-04-18T04:33:17.372Z,1005.58
2023-04-18T04:34:17.386Z,1005.59
2023-04-18T04:35:17.356Z,1005.58
2023-04-18T04:36:18.770Z,1005.61
2023-04-18T04:37:17.329Z,1005.62
2023-04-18T04:38:17.323Z,1005.63
2023-04-18T04:39:17.312Z,1005.62
2023-04-18T04:40:17.306Z,1005.64
2023-04-18T04:41:17.590Z,1005.64
2023-04-18T04:42:17.280Z,1005.63
2023-04-18T04:43:17.269Z,1005.64
2023-04-18T04:44:17.286Z,1005.64
2023-04-18T04:45:17.252Z,1005.65
2023-04-18T04:46:17.605Z,1005.65
2023-04-18T04:47:17.218Z,1005.68
2023-04-18T04:48:17.219Z,1005.67
2023-04-18T04:49:17.203Z,1005.68
2023-04-18T04:50:17.198Z,1005.70
2023-04-18T04:51:17.501Z,1005.68
2023-04-18T04:52:17.181Z,1005.67
2023-04-18T04:53:17.166Z,1005.66
2023-04-18T04:54:17.174Z,1005.67
2023-04-18T04:55:17.155Z,1005.67
2023-04-18T04:56:17.609Z,1005.68
2023-04-18T04:57:17.120Z,1005.68
2023-04-18T04:58:17.123Z,1005.67
2023-04-18T04:59:17.108Z,1005.67
2023-04-18T05:00:17.095Z,1005.69
2023-04-18T05:01:17.422Z,1005.69
2023-04-18T05:02:17.131Z,1005.70
2023-04-18T05:03:17.338Z,1005.71
2023-04-18T05:04:17.481Z,1005.69
2023-04-18T05:05:17.047Z,1005.71
2023-04-18T05:06:17.367Z,1005.70
2023-04-18T05:07:17.030Z,1005.72
2023-04-18T05:08:17.019Z,1005.72
2023-04-18T05:09:17.007Z,1005.74
2023-04-18T05:10:17.005Z,1005.74
2023-04-18T05:11:17.359Z,1005.74
2023-04-18T05:12:16.976Z,1005.73
2023-04-18T05:13:16.964Z,1005.74
2023-04-18T05:14:16.955Z,1005.76
2023-04-18T05:15:17.148Z,1005.77
2023-04-18T05:16:16.977Z,1005.75
2023-04-18T05:17:16.915Z,1005.75
2023-04-18T05:18:16.920Z,1005.77
2023-04-18T05:19:16.904Z,1005.77
2023-04-18T05:20:17.196Z,1005.77
2023-04-18T05:21:16.877Z,1005.78
2023-04-18T05:22:16.869Z,1005.77
2023-04-18T05:23:16.866Z,1005.77
2023-04-18T05:24:17.065Z,1005.77
2023-04-18T05:25:16.846Z,1005.77
2023-04-18T05:26:17.123Z,1005.78
2023-04-18T05:27:18.218Z,1005.79
2023-04-18T05:28:16.824Z,1005.80
2023-04-18T05:29:16.804Z,1005.80
2023-04-18T05:30:16.805Z,1005.81
2023-04-18T05:31:16.996Z,1005.82
2023-04-18T05:32:16.784Z,1005.83
2023-04-18T05:33:16.756Z,1005.83
2023-04-18T05:34:16.890Z,1005.83
2023-04-18T05:35:16.733Z,1005.88
2023-04-18T05:36:17.232Z,1005.89
2023-04-18T05:37:16.716Z,1005.90
2023-04-18T05:38:16.723Z,1005.90
2023-04-18T05:39:16.707Z,1005.90
2023-04-18T05:40:16.712Z,1005.91
2023-04-18T05:41:17.034Z,1005.91
2023-04-18T05:42:16.678Z,1005.90
2023-04-18T05:43:16.657Z,1005.90
2023-04-18T05:44:16.655Z,1005.90
2023-04-18T05:45:16.633Z,1005.90
2023-04-18T05:46:16.978Z,1005.89
2023-04-18T05:47:16.697Z,1005.89
2023-04-18T05:48:16.611Z,1005.90
2023-04-18T05:49:16.599Z,1005.89
2023-04-18T05:50:16.602Z,1005.90
2023-04-18T05:51:17.116Z,1005.90
2023-04-18T05:52:16.578Z,1005.92
2023-04-18T05:53:16.570Z,1005.92
2023-04-18T05:54:16.626Z,1005.95
2023-04-18T05:55:16.877Z,1005.95
2023-04-18T05:56:16.538Z,1005.98
2023-04-18T05:57:16.530Z,1005.98
2023-04-18T05:58:16.511Z,1005.98
2023-04-18T05:59:16.504Z,1005.99
2023-04-18T06:00:16.803Z,1006.02
2023-04-18T06:01:16.474Z,1006.05
2023-04-18T06:02:16.664Z,1006.04
2023-04-18T06:03:16.733Z,1006.05
2023-04-18T06:04:16.878Z,1006.07
2023-04-18T06:05:17.118Z,1006.08
2023-04-18T06:06:16.434Z,1006.10
2023-04-18T06:07:16.414Z,1006.10
2023-04-18T06:08:16.404Z,1006.10
2023-04-18T06:09:16.397Z,1006.12
2023-04-18T06:10:16.656Z,1006.11
2023-04-18T06:11:16.381Z,1006.12
2023-04-18T06:12:16.364Z,1006.12
2023-04-18T06:13:16.358Z,1006.13
2023-04-18T06:14:16.559Z,1006.15
2023-04-18T06:15:16.329Z,1006.14
2023-04-18T06:16:16.752Z,1006.14
2023-04-18T06:17:16.308Z,1006.16
2023-04-18T06:18:16.304Z,1006.17
2023-04-18T06:19:16.290Z,1006.17
2023-04-18T06:20:16.303Z,1006.17
2023-04-18T06:21:16.613Z,1006.18
2023-04-18T06:22:16.266Z,1006.18
2023-04-18T06:23:16.249Z,1006.18
2023-04-18T06:24:16.485Z,1006.20
2023-04-18T06:25:16.230Z,1006.19
2023-04-18T06:26:16.552Z,1006.19
2023-04-18T06:27:28.303Z,1006.21
2023-04-18T06:28:16.214Z,1006.21
2023-04-18T06:29:16.188Z,1006.20
2023-04-18T06:30:16.185Z,1006.20
2023-04-18T06:31:16.505Z,1006.21
2023-04-18T06:32:16.159Z,1006.21
2023-04-18T06:33:16.145Z,1006.22
2023-04-18T06:34:16.366Z,1006.23
2023-04-18T06:35:16.134Z,1006.26
2023-04-18T06:36:16.446Z,1006.28
2023-04-18T06:37:16.104Z,1006.30
2023-04-18T06:38:16.104Z,1006.29
2023-04-18T06:39:16.091Z,1006.27
2023-04-18T06:40:16.096Z,1006.28
2023-04-18T06:41:16.410Z,1006.30
2023-04-18T06:42:16.059Z,1006.28
2023-04-18T06:43:16.058Z,1006.28
2023-04-18T06:44:16.121Z,1006.29
2023-04-18T06:45:16.022Z,1006.32
2023-04-18T06:46:16.112Z,1006.33
2023-04-18T06:47:16.005Z,1006.34
2023-04-18T06:48:16.000Z,1006.35
2023-04-18T06:49:15.983Z,1006.35
2023-04-18T06:50:15.983Z,1006.37
2023-04-18T06:51:16.313Z,1006.38
2023-04-18T06:52:15.965Z,1006.39
2023-04-18T06:53:15.956Z,1006.40
2023-04-18T06:54:16.077Z,1006.41
2023-04-18T06:55:15.923Z,1006.41
2023-04-18T06:56:16.224Z,1006.43
2023-04-18T06:57:15.920Z,1006.43
2023-04-18T06:58:15.901Z,1006.41
2023-04-18T06:59:15.884Z,1006.41
2023-04-18T07:00:15.874Z,1006.40
2023-04-18T07:01:15.915Z,1006.40
2023-04-18T07:02:15.943Z,1006.37
2023-04-18T07:03:16.011Z,1006.38
2023-04-18T07:04:16.182Z,1006.40
2023-04-18T07:05:15.822Z,1006.42
2023-04-18T07:06:15.828Z,1006.45
2023-04-18T07:07:15.799Z,1006.46
2023-04-18T07:08:15.791Z,1006.46
2023-04-18T07:09:15.780Z,1006.49
2023-04-18T07:10:15.776Z,1006.49
2023-04-18T07:11:16.132Z,1006.48
2023-04-18T07:12:15.752Z,1006.50
2023-04-18T07:13:15.735Z,1006.52
2023-04-18T07:14:15.938Z,1006.51
2023-04-18T07:15:15.714Z,1006.53
2023-04-18T07:16:16.467Z,1006.54
2023-04-18T07:17:15.696Z,1006.51
2023-04-18T07:18:23.263Z,1006.52
2023-04-18T07:19:15.690Z,1006.52
2023-04-18T07:20:15.677Z,1006.49
2023-04-18T07:21:16.125Z,1006.49
2023-04-18T07:22:15.649Z,1006.51
2023-04-18T07:23:15.635Z,1006.50
2023-04-18T07:24:15.931Z,1006.52
2023-04-18T07:25:15.622Z,1006.51
2023-04-18T07:26:15.956Z,1006.50
2023-04-18T07:27:15.596Z,1006.50
2023-04-18T07:28:15.590Z,1006.51
2023-04-18T07:29:15.580Z,1006.48
2023-04-18T07:30:15.566Z,1006.50
2023-04-18T07:31:15.935Z,1006.51
2023-04-18T07:32:15.557Z,1006.49
2023-04-18T07:33:15.546Z,1006.50
2023-04-18T07:34:15.791Z,1006.50
2023-04-18T07:35:15.515Z,1006.50
2023-04-18T07:36:16.437Z,1006.51
2023-04-18T07:37:15.497Z,1006.50
2023-04-18T07:38:15.488Z,1006.51
2023-04-18T07:39:15.479Z,1006.54
2023-04-18T07:40:15.478Z,1006.52
2023-04-18T07:41:15.774Z,1006.53
2023-04-18T07:42:15.458Z,1006.53
2023-04-18T07:43:15.439Z,1006.51
2023-04-18T07:44:15.598Z,1006.53
2023-04-18T07:45:15.423Z,1006.53
2023-04-18T07:46:15.849Z,1006.54
2023-04-18T07:47:15.396Z,1006.54
2023-04-18T07:48:15.455Z,1006.56
2023-04-18T07:49:15.620Z,1006.56
2023-04-18T07:50:15.367Z,1006.55
2023-04-18T07:51:15.673Z,1006.55
2023-04-18T07:52:15.358Z,1006.57
2023-04-18T07:53:15.347Z,1006.56
2023-04-18T07:54:15.333Z,1006.57
2023-04-18T07:55:15.321Z,1006.59
2023-04-18T07:56:15.661Z,1006.61
2023-04-18T07:57:15.302Z,1006.63
2023-04-18T07:58:15.294Z,1006.65
2023-04-18T07:59:15.616Z,1006.64
2023-04-18T08:00:15.281Z,1006.65
2023-04-18T08:01:15.707Z,1006.64
2023-04-18T08:02:15.318Z,1006.63
2023-04-18T08:03:15.485Z,1006.68
2023-04-18T08:04:15.369Z,1006.66
2023-04-18T08:05:15.314Z,1006.66
2023-04-18T08:06:15.523Z,1006.67
2023-04-18T08:07:15.202Z,1006.66
2023-04-18T08:08:15.197Z,1006.67
2023-04-18T08:09:15.434Z,1006.68
2023-04-18T08:10:15.181Z,1006.69
2023-04-18T08:11:15.478Z,1006.71
2023-04-18T08:12:15.164Z,1006.71
2023-04-18T08:13:15.138Z,1006.71
2023-04-18T08:14:15.140Z,1006.72
2023-04-18T08:15:15.136Z,1006.72
2023-04-18T08:16:17.339Z,1006.72
2023-04-18T08:17:15.102Z,1006.75
2023-04-18T08:18:15.098Z,1006.74
2023-04-18T08:19:15.180Z,1006.72
2023-04-18T08:20:15.082Z,1006.71
2023-04-18T08:21:15.370Z,1006.70
2023-04-18T08:22:15.057Z,1006.71
2023-04-18T08:23:15.147Z,1006.73
2023-04-18T08:24:15.043Z,1006.73
2023-04-18T08:25:15.031Z,1006.73
2023-04-18T08:26:15.062Z,1006.74
2023-04-18T08:27:15.014Z,1006.74
2023-04-18T08:28:15.000Z,1006.76
2023-04-18T08:29:15.255Z,1006.75
2023-04-18T08:30:14.979Z,1006.73
2023-04-18T08:31:15.452Z,1006.75
2023-04-18T08:32:14.959Z,1006.76
2023-04-18T08:33:14.958Z,1006.76
2023-04-18T08:34:14.944Z,1006.76
2023-04-18T08:35:14.934Z,1006.75
2023-04-18T08:36:15.261Z,1006.75
2023-04-18T08:37:14.917Z,1006.76
2023-04-18T08:38:14.918Z,1006.76
2023-04-18T08:39:15.062Z,1006.81
2023-04-18T08:40:14.881Z,1006.80
2023-04-18T08:41:15.217Z,1006.81
2023-04-18T08:42:14.865Z,1006.81
2023-04-18T08:43:14.859Z,1006.85
2023-04-18T08:44:14.912Z,1006.87
2023-04-18T08:45:14.856Z,1006.86
2023-04-18T08:46:14.933Z,1006.86
2023-04-18T08:47:14.832Z,1006.88
2023-04-18T08:48:14.822Z,1006.90
2023-04-18T08:49:15.128Z,1006.86
2023-04-18T08:50:14.793Z,1006.85
2023-04-18T08:51:14.789Z,1006.85
2023-04-18T08:52:15.096Z,1006.84
2023-04-18T08:53:14.779Z,1006.82
2023-04-18T08:54:14.760Z,1006.82
2023-04-18T08:55:14.758Z,1006.79
2023-04-18T08:56:14.926Z,1006.79
2023-04-18T08:57:14.740Z,1006.81
2023-04-18T08:58:14.720Z,1006.83
2023-04-18T08:59:14.905Z,1006.81
2023-04-18T09:00:14.718Z,1006.82
2023-04-18T09:01:14.904Z,1006.81
2023-04-18T09:02:14.748Z,1006.80
2023-04-18T09:03:14.702Z,1006.83
2023-04-18T09:04:14.740Z,1006.83
2023-04-18T09:05:14.790Z,1006.81
2023-04-18T09:06:14.658Z,1006.82
2023-04-18T09:07:15.269Z,1006.83
2023-04-18T09:08:14.637Z,1006.84
2023-04-18T09:09:14.770Z,1006.85
2023-04-18T09:10:14.622Z,1006.84
2023-04-18T09:11:14.622Z,1006.80
2023-04-18T09:12:14.906Z,1006.82
2023-04-18T09:13:14.601Z,1006.84
2023-04-18T09:14:14.779Z,1006.83
2023-04-18T09:15:14.586Z,1006.81
2023-04-18T09:16:14.591Z,1006.78
2023-04-18T09:17:14.732Z,1006.77
2023-04-18T09:18:14.572Z,1006.79
2023-04-18T09:19:15.029Z,1006.76
2023-04-18T09:20:14.536Z,1006.80
2023-04-18T09:21:14.533Z,1006.74
2023-04-18T09:22:15.218Z,1006.78
2023-04-18T09:23:14.926Z,1006.78
2023-04-18T09:24:14.680Z,1006.80
2023-04-18T09:25:14.487Z,1006.77
2023-04-18T09:26:14.475Z,1006.73
2023-04-18T09:27:15.216Z,1006.74
2023-04-18T09:28:14.451Z,1006.76
2023-04-18T09:29:14.525Z,1006.76
2023-04-18T09:30:14.432Z,1006.75
2023-04-18T09:31:14.493Z,1006.78
2023-04-18T09:32:14.721Z,1006.79
2023-04-18T09:33:14.439Z,1006.77
2023-04-18T09:34:14.645Z,1006.76
2023-04-18T09:35:14.387Z,1006.69
2023-04-18T09:36:14.383Z,1006.71
2023-04-18T09:37:15.125Z,1006.71
2023-04-18T09:38:14.386Z,1006.69
2023-04-18T09:39:14.464Z,1006.69
2023-04-18T09:40:14.332Z,1006.65
2023-04-18T09:41:14.319Z,1006.67
2023-04-18T09:42:14.676Z,1006.67
2023-04-18T09:43:14.295Z,1006.68
2023-04-18T09:44:15.260Z,1006.64
2023-04-18T09:45:14.283Z,1006.65
2023-04-18T09:46:14.329Z,1006.65
2023-04-18T09:47:14.978Z,1006.70
2023-04-18T09:48:14.245Z,1006.68
2023-04-18T09:49:14.755Z,1006.69
2023-04-18T09:50:14.221Z,1006.66
2023-04-18T09:51:14.216Z,1006.67
2023-04-18T09:52:14.546Z,1006.68
2023-04-18T09:53:14.200Z,1006.64
2023-04-18T09:54:14.377Z,1006.62
2023-04-18T09:55:14.290Z,1006.64
2023-04-18T09:56:14.192Z,1006.63
2023-04-18T09:57:14.635Z,1006.61
2023-04-18T09:58:14.154Z,1006.67
2023-04-18T09:59:14.310Z,1006.65
2023-04-18T10:00:14.190Z,1006.64
2023-04-18T10:01:14.124Z,1006.63
2023-04-18T10:02:14.174Z,1006.64
2023-04-18T10:03:14.265Z,1006.66
2023-04-18T10:04:14.360Z,1006.68
2023-04-18T10:05:14.169Z,1006.67
2023-04-18T10:06:14.048Z,1006.66
2023-04-18T10:07:14.824Z,1006.66
2023-04-18T10:08:14.032Z,1006.67
2023-04-18T10:09:14.207Z,1006.66
2023-04-18T10:10:14.005Z,1006.70
2023-04-18T10:11:14.014Z,1006.70
2023-04-18T10:12:14.348Z,1006.70
2023-04-18T10:13:13.996Z,1006.73
2023-04-18T10:14:14.112Z,1006.75
2023-04-18T10:15:13.960Z,1006.75
2023-04-18T10:16:13.975Z,1006.72
2023-04-18T10:17:14.222Z,1006.71
2023-04-18T10:18:13.960Z,1006.71
2023-04-18T10:19:14.229Z,1006.69
2023-04-18T10:20:13.909Z,1006.70
2023-04-18T10:21:13.901Z,1006.69
2023-04-18T10:22:14.820Z,1006.68
2023-04-18T10:23:13.876Z,1006.71
2023-04-18T10:24:14.020Z,1006.70
2023-04-18T10:25:13.872Z,1006.67
2023-04-18T10:26:13.838Z,1006.67
2023-04-18T10:27:13.870Z,1006.66
2023-04-18T10:28:13.818Z,1006.67
2023-04-18T10:29:13.952Z,1006.66
2023-04-18T10:30:13.794Z,1006.63
2023-04-18T10:31:13.815Z,1006.61
2023-04-18T10:32:14.273Z,1006.63
2023-04-18T10:33:25.765Z,1006.66
2023-04-18T10:34:13.762Z,1006.63
2023-04-18T10:35:13.784Z,1006.61
2023-04-18T10:36:13.753Z,1006.59
2023-04-18T10:37:13.757Z,1006.56
2023-04-18T10:38:13.703Z,1006.58
2023-04-18T10:39:13.689Z,1006.60
2023-04-18T10:40:13.688Z,1006.59
2023-04-18T10:41:13.669Z,1006.57
2023-04-18T10:42:13.985Z,1006.57
2023-04-18T10:43:13.646Z,1006.54
2023-04-18T10:44:13.843Z,1006.55
2023-04-18T10:45:13.630Z,1006.56
2023-04-18T10:46:27.814Z,1006.56
2023-04-18T10:47:13.973Z,1006.58
2023-04-18T10:48:13.618Z,1006.56
2023-04-18T10:49:13.678Z,1006.54
2023-04-18T10:50:13.577Z,1006.55
2023-04-18T10:51:13.563Z,1006.52
2023-04-18T10:52:14.288Z,1006.50
2023-04-18T10:53:13.538Z,1006.52
2023-04-18T10:54:13.773Z,1006.50
2023-04-18T10:55:13.516Z,1006.51
2023-04-18T10:56:13.503Z,1006.49
2023-04-18T10:57:13.693Z,1006.49
2023-04-18T10:58:13.476Z,1006.52
2023-04-18T10:59:13.471Z,1006.52
2023-04-18T11:00:13.454Z,1006.50
2023-04-18T11:01:13.480Z,1006.51
2023-04-18T11:02:13.669Z,1006.46
2023-04-18T11:03:13.554Z,1006.52
2023-04-18T11:04:14.124Z,1006.46
2023-04-18T11:05:13.404Z,1006.43
2023-04-18T11:06:13.387Z,1006.41
2023-04-18T11:07:14.222Z,1006.42
2023-04-18T11:08:13.362Z,1006.43
2023-04-18T11:09:13.414Z,1006.42
2023-04-18T11:10:13.408Z,1006.41
2023-04-18T11:11:13.343Z,1006.45
2023-04-18T11:12:13.489Z,1006.42
2023-04-18T11:13:13.314Z,1006.43
2023-04-18T11:14:13.521Z,1006.41
2023-04-18T11:15:13.293Z,1006.44
2023-04-18T11:16:13.282Z,1006.44
2023-04-18T11:17:13.991Z,1006.48
2023-04-18T11:18:13.275Z,1006.44
2023-04-18T11:19:13.243Z,1006.44
2023-04-18T11:20:13.235Z,1006.42
2023-04-18T11:21:13.215Z,1006.43
2023-04-18T11:22:14.160Z,1006.45
2023-04-18T11:23:13.191Z,1006.43
2023-04-18T11:24:13.462Z,1006.42
2023-04-18T11:25:13.169Z,1006.41
2023-04-18T11:26:13.151Z,1006.41
2023-04-18T11:27:13.890Z,1006.40
2023-04-18T11:28:13.128Z,1006.40
2023-04-18T11:29:13.134Z,1006.41
2023-04-18T11:30:13.117Z,1006.41
2023-04-18T11:31:13.094Z,1006.42
2023-04-18T11:32:13.580Z,1006.42
2023-04-18T11:33:13.115Z,1006.39
2023-04-18T11:34:13.200Z,1006.39
2023-04-18T11:35:13.044Z,1006.42
2023-04-18T11:36:13.044Z,1006.43
2023-04-18T11:37:13.743Z,1006.44
2023-04-18T11:38:13.021Z,1006.43
2023-04-18T11:39:12.999Z,1006.41
2023-04-18T11:40:12.970Z,1006.41
2023-04-18T11:41:12.971Z,1006.37
2023-04-18T11:42:13.275Z,1006.37
2023-04-18T11:43:12.952Z,1006.35
2023-04-18T11:44:13.211Z,1006.34
2023-04-18T11:45:12.924Z,1006.34
2023-04-18T11:46:12.918Z,1006.36
2023-04-18T11:47:13.168Z,1006.33
2023-04-18T11:48:12.879Z,1006.37
2023-04-18T11:49:12.873Z,1006.35
2023-04-18T11:50:12.892Z,1006.35
2023-04-18T11:51:12.852Z,1006.36
2023-04-18T11:52:13.545Z,1006.40
2023-04-18T11:53:12.818Z,1006.42
2023-04-18T11:54:13.145Z,1006.38
2023-04-18T11:55:12.791Z,1006.37
2023-04-18T11:56:12.788Z,1006.37
2023-04-18T11:57:13.608Z,1006.38
2023-04-18T11:58:12.768Z,1006.39
2023-04-18T11:59:12.752Z,1006.37
2023-04-18T12:00:12.819Z,1006.40
2023-04-18T12:01:12.730Z,1006.35
2023-04-18T12:02:16.855Z,1006.38
2023-04-18T12:03:13.982Z,1006.38
2023-04-18T12:04:12.967Z,1006.39
2023-04-18T12:05:12.897Z,1006.39